Dutch
Home     News     Corporate     Events & Tours     Flight ops     Crew centre      
My transavia virtual    Join us    Last logs    Who is flying    Software    Training    VRTS     
 

view flightdata
view flightplan
view OFP
view flightlog



flightdata:
pilot: Bernard B Mienville
flight: TRA232
from: EGGW (London Luton)
to: EHRD (Rotterdam)
date: 23-07-2019
departure: 12:07z
arrival: 13:07z
duration: 1:00
aircraft: B738 (PHHSJ)
distance: 224 NM
touchdown: -180 ft/m @ 131 KIAS



flightplan:
-(FPL-TRA232-IS
-B738/M-SDE2E3FGIRWXY/LB1
-EGGW1200
-N0363F190 MATCH Q295 BRAIN M197 REDFA
-EHRD0037 EHEH
-PBN/A1B1D1O1S1 DOF/190723 REG/PHHSJ EET/EHAA0020 SEL/JQLP RVR/200 OPR/TRA)



operational flightplan (OFP):
DISPATCH BRIEFING (TEL:
--------- --------- --------- --------- --------- --------- ---------  
PREDEPARTURE ATC CLEARANCE:
.
.
--------- --------- --------- --------- --------- --------- ---------  
OFP  1    23 JUL 19/11:45
                                    OBS  ASKY

TRA232     C/S TRA4211  EGGW/LTN   EHRD/RTM         CRZ SYS     CI 11
23 JUL 19  PH-HSJ       1935/1935  2022/2027        GND DIST      199
           TAB:.....    CTOT:....  STA  2035        AIR DIST      181
                                                    AVG W/C      T029
MAXIMUM    ZFW  62731  LAW  66360  TOW  78975       AVG ISA       P08
ESTIMATED  ZFW  61846  LAW  64138  TOW  65786       F-F FACTOR    0.0
ACTUAL     ZFW  .....  LAW  .....  TOW  .....
--------- --------- --------- --------- --------- --------- ---------
TRIP        1648   0037           .....  .....
CONT         190   0005           .....  .....
ALTN         962   0021  EHEH     .....  .....  ....
FINAL       1140   0030           .....  .....
ADDNL          0   0000           .....  .....
TANKERING                  
PLN TOF     3940   0133
DIFF        ....   ....
PLN TOF     ....   ....  (CORRECTED)   
EXTRA          0   ....                  
TOF         3940   ....                 
TAXI         120   ....                  
BLOCK       4060   ....        
--------- --------- --------- --------- --------- --------- ---------
REASON EXTRA FUEL      MATRIX FUEL:
O ECN-ECONAMICAL     O TMP-TEMPORARILY      O ATC-AIR TRAFFIC CNTRL
O FOB-FUEL ON.BOARD  O MSC-MISCELLANEOUS    O FPC-FLIGHT PLN CORR
O WXR-WEATHER        O TEC-TECHNICAL        ACT.CI/CRZ USED: . . .   

--------- --------- --------- --------- --------- --------- ---------

ZFW ZFW 1000 : PLN TOF   XXXXX/TRIP XXXXX 00 MIN HOLD DEST: 0 EXTRA
ZFW ZFW-1000 : PLN TOF   XXXXX/TRIP XXXXX
--------- --------- --------- --------- --------- --------- ---------
COMMANDERS NAME:                           SIGNATURE:

--------- --------- --------- --------- --------- --------- ---------
FROM:  EGGW ELEV526      TO: EHRD ELEV-14        ALTN: EHEH ELEV  74
ATC C/S     : TRA42TRA232             AVG ISA : P08
CO-ROUTE    :                        AVG TT  :   
FMC-RES FUEL: 2102                   AVG W/C : T029
CRZ ALT     : FL190                  FL310
CI          : CI 11                  FL200     253/032
                                     FL100

EGGW/08  N0363F190 MATC1C MATCH Q295 BRAIN M197 REDFA REDF2R EHRD/24

--------- --------- --------- --------- --------- --------- ---------
.
.
--------- --------- --------- --------- --------- --------- ---------
RVSM ALT CHECK:  FL:...... LEFT: ...... STBY: ...... RIGHT: ......

--------- --------- --------- --------- --------- --------- ---------
DESTINATION ALTERNATE EHEH
--------- --------- --------- --------- --------- --------- ---------

--------- --------- --------- --------- --------- --------- ---------
--------- --------- --------- --------- --------- --------- ---------
ALTERNATE SUMMARY
--------- --------- --------- --------- --------- --------- ---------
      ALTN        DIST   LVL       WC TIME  FUEL VIA
      EHEH/21       79  3000     T006 0021   962 INKE1B INKET INKE2E
INFO/EBBR/25R     104  FL100    H006 0025  1174 WOOD1B WOODY WODY3B
INFO/EDLV/09      128  FL090    T004 0030  1316 ARNE2B ARNEM T196 TEBRO
                                           P71 PISAP Z850 SOBTU
                                           SOBT1W
INFO/EHAM/24      159  FL090    T002 0036  1566 WOOD1B WOODY N872 NIK
                                           L179 HELEN HELE1A
--------- --------- --------- --------- --------- --------- ---------


-(FPL-TRA232-IS
-B738/M-SDE2E3FGIRWXY/LB1
-EGGW1200
-N0363F190 MATCH Q295 BRAIN M197 REDFA
-EHRD0037 EHEH
-PBN/A1B1D1O1S1 DOF/190723 REG/PHHSJ EET/EHAA0020 SEL/JQLP RVR/200 OPR/TRA)

WEATHER BRIEFING - GENERATED 23 JUL 2019 11:45 UTC
--------------------------------------------------------------------------------

EGGW EHRD EHEH EBBR EDLV EHAM

--------------------------------------------------------------------------------
ORIGIN: EGGW (LONDON LUTON)
--------------------------------------------------------------------------------
EGGW 231120Z AUTO 16008KT 120V200 9999 NCD 29/15 Q1018

EGGW 230505Z 2306/2406 VRB03KT 0300 FG FEW025
      BECMG 2306/2308 9999 NSW
      BECMG 2312/2315 13010KT PROB30
      TEMPO 2321/2405 09015G25KT 5000 SHRA
      BECMG 2404/2406 25005KT


--------------------------------------------------------------------------------
DESTINATION: EHRD (ROTTERDAM)
--------------------------------------------------------------------------------
EHRD 231125Z AUTO 16005KT 060V220 9999 NCD 30/16 Q1020 NOSIG

EHRD 230423Z 2306/2412 VRB03KT CAVOK
      BECMG 2316/2319 07008KT


--------------------------------------------------------------------------------
ALTERNATE: EHEH (EINDHOVEN)
--------------------------------------------------------------------------------
EHEH 231125Z AUTO 10005KT 120V250 9999 NCD 32/13 Q1020 BLU 13005KT CAVOK

EHEH 230523Z 2306/2412 VRB01KT CAVOK
      BECMG 2308/2310 13005KT
      BECMG 2317/2319 08006KT
      BECMG 2404/2407 14005KT


--------------------------------------------------------------------------------
ALTERNATE: EBBR (BRUSSELS)
--------------------------------------------------------------------------------
EBBR 231120Z 11005KT 060V150 CAVOK 31/14 Q1020 NOSIG

EBBR 230520Z 2306/2412 12004KT CAVOK=  EDDF 230500Z 2306/2412 07005KT CAVOK
      BECMG 2409/2411 15005KT


--------------------------------------------------------------------------------
ALTERNATE: EDLV (NIEDERRHEIN)
--------------------------------------------------------------------------------
EDLV 231120Z 13005KT 080V170 CAVOK 31/15 Q1020

EDLV 230500Z 2306/2406 10004KT CAVOK
      TEMPO 2309/2315 16005KT


--------------------------------------------------------------------------------
ALTERNATE: EHAM (SCHIPHOL)
--------------------------------------------------------------------------------
EHAM 231125Z 16005KT 100V220 CAVOK 29/16 Q1020 NOSIG

EHAM 230427Z 2306/2412 19005KT CAVOK
      BECMG 2311/2314 VRB03KT
      BECMG 2316/2319 06008KT
      BECMG 2401/2404 14008KT


NOTAM BRIEFING - GENERATED 23 JUL 2019 11:46 UTC
--------------------------------------------------------------------------------

EGGW EHRD EHEH EHEH EBBR EDLV EHAM

--------------------------------------------------------------------------------
GLOBAL TRANSAVIA.COM VIRTUAL NOTAMS
--------------------------------------------------------------------------------
REF:NIL PLEASE CONTACT OPERATIONS IN CASE OF STRUCTURAL FLIGHTPLAN ERRORS ON FLIGHT-OPS@TRANSAVIA-VIRTUAL.COM
VALID:UFN

REF:NIL
PLEASE CHECK ACARS EVERY 10 MINUTES WHEN FLYING WITH SOUND OFF. AN NEW ACARS MESSAGE PRODUCE A SOUND SIGNAL UNTILL ITS READ. FLOWCONTROL DON'T RECEIVE MUCH REACTION ON OUTGOING ACARS MESSAGES ACCORDING FLIGHTSTATUS.
SOURCE: SPL/HV/OCC/
END VALID: UFN

REF:NIL
PLEASE CONTACT FLOWCONTROL IN CASE OF PROBLEMS WITH ROUTINGS
SOURCE: SPL/HV/OCC/
END VALID: UFN

REF:NIL
IN CASE OF ENGINE-OUT FLY V2 OR V2 20 MAX. UNTIL ABOVE MSA.
LEVEL-OFF AT AN ALTITUDE ROUNDED OFF TO THE FIRST 1000 FT OF THE HIGHEST MSA.
E.G: MSA EHAM; 1.7 AND 2.3 LEVEL-OFF 3000 FT. AFTER LANDING MAKE A REP TO OCC ON 131.975
SOURCE:SPL/HV/OCC
END VALID:UFN



flightlog:
Pilot : Bernard B Mienville
Flight: TRA232
From  : EGGW London Luton
To    : EHRD Rotterdam

[FLIGHTLOG] 1.5.4
23-07-2019 12:04:00z, logging started
23-07-2019 12:07:22z, parking brake released
23-07-2019 12:10:01z, flaps set to 13%
23-07-2019 12:10:02z, flaps set to 38%
23-07-2019 12:10:03z, flaps set to 50%
23-07-2019 12:19:00z, pos report: 019 KIAS, 00 534 ft, heading 255, winds 170 @ 09 kts
23-07-2019 12:20:33z, take-off at 160 KIAS
23-07-2019 12:20:33z, pos report: 160 KIAS, 00 537 ft, heading 077, winds 172 @ 09 kts
23-07-2019 12:20:33z, flying online @ IVAO (TRA232)
23-07-2019 12:20:33z, position: EGGW - London Luton
23-07-2019 12:20:46z, retracted gear at 174 KIAS and 532 ft AGL
23-07-2019 12:20:57z, flaps set to 13%
23-07-2019 12:21:08z, flaps set to 0%
23-07-2019 12:34:01z, pos report: 330 KIAS, 19 136 ft, heading 076, winds 214 @ 26 kts
23-07-2019 12:49:02z, pos report: 222 KIAS, 05 939 ft, heading 073, winds 192 @ 10 kts
23-07-2019 12:50:37z, flaps set to 13%
23-07-2019 12:58:24z, flaps set to 38%
23-07-2019 12:59:20z, below glideslope
23-07-2019 13:00:07z, flaps set to 50%
23-07-2019 13:00:28z, intercepted localizer
23-07-2019 13:01:32z, on glideslope
23-07-2019 13:01:53z, flaps set to 62%
23-07-2019 13:01:55z, lowered gear at 166 KIAS and 1841 ft AGL
23-07-2019 13:02:20z, flaps set to 87%
23-07-2019 13:03:38z, below glideslope
23-07-2019 13:04:00z, on glideslope
23-07-2019 13:04:03z, pos report: 141 KIAS, 00 158 ft, heading 234, winds 155 @ 05 kts
23-07-2019 13:04:25z, touchdown: -180ft/m at 131 KIAS
23-07-2019 13:04:25z, pos report: 131 KIAS, -00 005 ft, heading 235, winds 158 @ 05 kts
23-07-2019 13:04:25z, flying online @ IVAO (TRA232)
23-07-2019 13:04:25z, position: EHRD - Rotterdam
23-07-2019 13:04:53z, flaps set to 62%
23-07-2019 13:04:54z, flaps set to 0%
23-07-2019 13:07:45z, parking brake set
23-07-2019 13:10:02z, logging ended

©2009-2020, transavia virtual. All rights reserved. This website is only meant for simulation purposes.
This website is not owned by transavia, nor is transavia responsible for the content of this website.